sensor_id;sensor_type;location;lat;lon;timestamp;P1;durP1;ratioP1;P2;durP2;ratioP2
39518;SDS011;25200;53.394;10.414;2022-09-11T00:00:44;23.98;;;15.50;;
39518;SDS011;25200;53.394;10.414;2022-09-11T00:03:13;24.58;;;14.05;;
39518;SDS011;25200;53.394;10.414;2022-09-11T00:05:40;26.02;;;16.13;;
39518;SDS011;25200;53.394;10.414;2022-09-11T00:08:07;20.58;;;13.73;;
39518;SDS011;25200;53.394;10.414;2022-09-11T00:10:36;24.75;;;15.02;;
39518;SDS011;25200;53.394;10.414;2022-09-11T00:13:04;23.85;;;13.52;;
39518;SDS011;25200;53.394;10.414;2022-09-11T00:15:38;22.80;;;14.93;;
39518;SDS011;25200;53.394;10.414;2022-09-11T00:18:15;21.50;;;14.77;;
39518;SDS011;25200;53.394;10.414;2022-09-11T00:20:51;26.15;;;15.80;;
39518;SDS011;25200;53.394;10.414;2022-09-11T00:23:19;25.55;;;16.00;;
39518;SDS011;25200;53.394;10.414;2022-09-11T00:25:47;23.40;;;14.50;;
39518;SDS011;25200;53.394;10.414;2022-09-11T00:28:13;27.42;;;15.43;;
39518;SDS011;25200;53.394;10.414;2022-09-11T00:33:24;26.13;;;16.90;;
39518;SDS011;25200;53.394;10.414;2022-09-11T00:35:58;24.83;;;16.02;;
39518;SDS011;25200;53.394;10.414;2022-09-11T00:38:28;24.35;;;14.63;;
39518;SDS011;25200;53.394;10.414;2022-09-11T00:40:56;25.52;;;15.13;;
39518;SDS011;25200;53.394;10.414;2022-09-11T00:43:24;26.98;;;16.75;;
39518;SDS011;25200;53.394;10.414;2022-09-11T00:45:57;24.98;;;14.57;;
39518;SDS011;25200;53.394;10.414;2022-09-11T00:48:32;28.27;;;16.33;;
39518;SDS011;25200;53.394;10.414;2022-09-11T00:50:59;26.38;;;14.98;;
39518;SDS011;25200;53.394;10.414;2022-09-11T00:53:31;28.67;;;16.80;;
39518;SDS011;25200;53.394;10.414;2022-09-11T00:56:00;23.05;;;15.10;;
39518;SDS011;25200;53.394;10.414;2022-09-11T00:58:31;24.80;;;15.05;;
39518;SDS011;25200;53.394;10.414;2022-09-11T01:01:00;26.38;;;15.65;;
39518;SDS011;25200;53.394;10.414;2022-09-11T01:03:27;27.08;;;15.48;;
39518;SDS011;25200;53.394;10.414;2022-09-11T01:05:53;22.63;;;14.23;;
39518;SDS011;25200;53.394;10.414;2022-09-11T01:08:19;25.85;;;14.82;;
39518;SDS011;25200;53.394;10.414;2022-09-11T01:13:39;24.02;;;14.35;;
39518;SDS011;25200;53.394;10.414;2022-09-11T01:16:37;28.55;;;16.70;;
39518;SDS011;25200;53.394;10.414;2022-09-11T01:30:22;28.52;;;15.73;;
39518;SDS011;25200;53.394;10.414;2022-09-11T01:35:25;27.15;;;15.52;;
39518;SDS011;25200;53.394;10.414;2022-09-11T01:38:07;27.08;;;15.65;;
39518;SDS011;25200;53.394;10.414;2022-09-11T01:40:58;25.65;;;15.35;;
39518;SDS011;25200;53.394;10.414;2022-09-11T01:43:32;27.15;;;15.00;;
39518;SDS011;25200;53.394;10.414;2022-09-11T01:46:02;25.10;;;15.23;;
39518;SDS011;25200;53.394;10.414;2022-09-11T01:48:36;25.52;;;15.95;;
39518;SDS011;25200;53.394;10.414;2022-09-11T01:51:12;25.48;;;15.02;;
39518;SDS011;25200;53.394;10.414;2022-09-11T01:53:43;22.30;;;14.98;;
39518;SDS011;25200;53.394;10.414;2022-09-11T01:56:13;24.73;;;14.07;;
39518;SDS011;25200;53.394;10.414;2022-09-11T01:58:44;24.67;;;13.65;;
39518;SDS011;25200;53.394;10.414;2022-09-11T02:01:16;25.95;;;14.93;;
39518;SDS011;25200;53.394;10.414;2022-09-11T02:03:46;28.00;;;15.35;;
39518;SDS011;25200;53.394;10.414;2022-09-11T02:07:09;24.70;;;14.07;;
39518;SDS011;25200;53.394;10.414;2022-09-11T02:09:13;27.77;;;16.38;;
39518;SDS011;25200;53.394;10.414;2022-09-11T02:11:42;24.48;;;14.82;;
39518;SDS011;25200;53.394;10.414;2022-09-11T02:19:28;25.15;;;15.07;;
39518;SDS011;25200;53.394;10.414;2022-09-11T02:21:55;26.13;;;16.08;;
39518;SDS011;25200;53.394;10.414;2022-09-11T02:24:22;25.10;;;14.70;;
39518;SDS011;25200;53.394;10.414;2022-09-11T02:26:50;27.08;;;15.77;;
39518;SDS011;25200;53.394;10.414;2022-09-11T02:29:19;27.13;;;15.35;;
39518;SDS011;25200;53.394;10.414;2022-09-11T02:31:45;23.20;;;14.70;;
39518;SDS011;25200;53.394;10.414;2022-09-11T02:34:12;24.98;;;15.43;;
39518;SDS011;25200;53.394;10.414;2022-09-11T02:47:22;25.25;;;15.90;;
39518;SDS011;25200;53.394;10.414;2022-09-11T02:50:12;25.33;;;14.10;;
39518;SDS011;25200;53.394;10.414;2022-09-11T02:55:39;26.02;;;15.02;;
39518;SDS011;25200;53.394;10.414;2022-09-11T02:58:14;24.13;;;14.40;;
39518;SDS011;25200;53.394;10.414;2022-09-11T03:00:41;30.92;;;17.83;;
39518;SDS011;25200;53.394;10.414;2022-09-11T03:03:08;26.20;;;16.25;;
39518;SDS011;25200;53.394;10.414;2022-09-11T03:05:33;28.30;;;17.20;;
39518;SDS011;25200;53.394;10.414;2022-09-11T03:08:01;29.55;;;17.38;;
39518;SDS011;25200;53.394;10.414;2022-09-11T03:10:28;27.08;;;16.50;;
39518;SDS011;25200;53.394;10.414;2022-09-11T03:12:54;30.10;;;16.55;;
39518;SDS011;25200;53.394;10.414;2022-09-11T03:15:19;28.15;;;16.38;;
39518;SDS011;25200;53.394;10.414;2022-09-11T03:17:47;30.27;;;17.55;;
39518;SDS011;25200;53.394;10.414;2022-09-11T03:20:12;29.75;;;17.92;;
39518;SDS011;25200;53.394;10.414;2022-09-11T03:22:38;29.67;;;17.05;;
39518;SDS011;25200;53.394;10.414;2022-09-11T03:25:03;31.17;;;17.42;;
39518;SDS011;25200;53.394;10.414;2022-09-11T03:27:30;29.80;;;18.05;;
39518;SDS011;25200;53.394;10.414;2022-09-11T03:29:56;25.85;;;15.70;;
39518;SDS011;25200;53.394;10.414;2022-09-11T03:32:23;30.17;;;18.30;;
39518;SDS011;25200;53.394;10.414;2022-09-11T03:34:48;26.10;;;15.18;;
39518;SDS011;25200;53.394;10.414;2022-09-11T03:37:14;27.83;;;17.23;;
39518;SDS011;25200;53.394;10.414;2022-09-11T03:39:40;33.90;;;17.92;;
39518;SDS011;25200;53.394;10.414;2022-09-11T03:42:07;25.65;;;17.08;;
39518;SDS011;25200;53.394;10.414;2022-09-11T03:44:34;31.65;;;18.55;;
39518;SDS011;25200;53.394;10.414;2022-09-11T03:47:00;26.23;;;15.38;;
39518;SDS011;25200;53.394;10.414;2022-09-11T03:49:26;29.50;;;16.77;;
39518;SDS011;25200;53.394;10.414;2022-09-11T03:51:51;27.25;;;16.45;;
39518;SDS011;25200;53.394;10.414;2022-09-11T03:54:17;30.33;;;17.27;;
39518;SDS011;25200;53.394;10.414;2022-09-11T03:56:42;30.33;;;16.63;;
39518;SDS011;25200;53.394;10.414;2022-09-11T03:59:08;28.83;;;17.90;;
39518;SDS011;25200;53.394;10.414;2022-09-11T04:01:34;30.33;;;17.58;;
39518;SDS011;25200;53.394;10.414;2022-09-11T04:04:00;26.30;;;16.50;;
39518;SDS011;25200;53.394;10.414;2022-09-11T04:06:26;25.08;;;13.90;;
39518;SDS011;25200;53.394;10.414;2022-09-11T04:08:52;29.23;;;17.27;;
39518;SDS011;25200;53.394;10.414;2022-09-11T04:11:18;28.73;;;16.63;;
39518;SDS011;25200;53.394;10.414;2022-09-11T04:13:43;26.63;;;16.20;;
39518;SDS011;25200;53.394;10.414;2022-09-11T04:16:10;29.52;;;17.40;;
39518;SDS011;25200;53.394;10.414;2022-09-11T04:18:39;24.35;;;13.30;;
39518;SDS011;25200;53.394;10.414;2022-09-11T04:21:09;30.35;;;15.85;;
39518;SDS011;25200;53.394;10.414;2022-09-11T04:23:37;25.05;;;14.55;;
39518;SDS011;25200;53.394;10.414;2022-09-11T04:26:11;28.02;;;15.45;;
39518;SDS011;25200;53.394;10.414;2022-09-11T04:28:41;24.40;;;14.60;;
39518;SDS011;25200;53.394;10.414;2022-09-11T04:31:07;32.13;;;15.68;;
39518;SDS011;25200;53.394;10.414;2022-09-11T04:33:33;23.75;;;13.52;;
39518;SDS011;25200;53.394;10.414;2022-09-11T04:36:06;23.75;;;14.02;;
39518;SDS011;25200;53.394;10.414;2022-09-11T04:38:34;24.43;;;13.60;;
39518;SDS011;25200;53.394;10.414;2022-09-11T04:41:01;25.02;;;12.57;;
39518;SDS011;25200;53.394;10.414;2022-09-11T04:43:28;27.05;;;15.82;;
39518;SDS011;25200;53.394;10.414;2022-09-11T04:45:59;27.30;;;14.45;;
39518;SDS011;25200;53.394;10.414;2022-09-11T04:48:25;22.58;;;13.90;;
39518;SDS011;25200;53.394;10.414;2022-09-11T04:51:03;21.13;;;11.52;;
39518;SDS011;25200;53.394;10.414;2022-09-11T04:53:32;26.13;;;14.30;;
39518;SDS011;25200;53.394;10.414;2022-09-11T04:56:06;23.98;;;13.35;;
39518;SDS011;25200;53.394;10.414;2022-09-11T04:58:36;25.40;;;12.90;;
39518;SDS011;25200;53.394;10.414;2022-09-11T05:01:05;25.35;;;13.18;;
39518;SDS011;25200;53.394;10.414;2022-09-11T05:03:32;23.02;;;11.95;;
39518;SDS011;25200;53.394;10.414;2022-09-11T05:05:57;27.02;;;14.48;;
39518;SDS011;25200;53.394;10.414;2022-09-11T05:08:27;23.58;;;13.32;;
39518;SDS011;25200;53.394;10.414;2022-09-11T05:10:52;26.30;;;12.95;;
39518;SDS011;25200;53.394;10.414;2022-09-11T05:13:19;23.58;;;13.02;;
39518;SDS011;25200;53.394;10.414;2022-09-11T05:15:44;24.55;;;12.50;;
39518;SDS011;25200;53.394;10.414;2022-09-11T05:18:11;21.60;;;12.07;;
39518;SDS011;25200;53.394;10.414;2022-09-11T05:20:36;22.80;;;12.55;;
39518;SDS011;25200;53.394;10.414;2022-09-11T05:23:04;23.23;;;12.57;;
39518;SDS011;25200;53.394;10.414;2022-09-11T05:25:29;20.55;;;11.48;;
39518;SDS011;25200;53.394;10.414;2022-09-11T05:27:56;18.83;;;9.98;;
39518;SDS011;25200;53.394;10.414;2022-09-11T05:30:21;19.60;;;11.00;;
39518;SDS011;25200;53.394;10.414;2022-09-11T05:32:50;17.65;;;10.07;;
39518;SDS011;25200;53.394;10.414;2022-09-11T05:35:19;18.88;;;9.93;;
39518;SDS011;25200;53.394;10.414;2022-09-11T05:37:48;18.45;;;10.00;;
39518;SDS011;25200;53.394;10.414;2022-09-11T05:40:13;16.90;;;9.07;;
39518;SDS011;25200;53.394;10.414;2022-09-11T05:42:39;15.98;;;9.55;;
39518;SDS011;25200;53.394;10.414;2022-09-11T05:45:05;15.50;;;9.10;;
39518;SDS011;25200;53.394;10.414;2022-09-11T05:47:31;17.17;;;9.50;;
39518;SDS011;25200;53.394;10.414;2022-09-11T05:49:57;16.90;;;8.88;;
39518;SDS011;25200;53.394;10.414;2022-09-11T05:52:22;14.82;;;8.48;;
39518;SDS011;25200;53.394;10.414;2022-09-11T05:54:48;16.92;;;9.38;;
39518;SDS011;25200;53.394;10.414;2022-09-11T05:57:14;15.57;;;8.80;;
39518;SDS011;25200;53.394;10.414;2022-09-11T05:59:40;17.30;;;9.48;;
39518;SDS011;25200;53.394;10.414;2022-09-11T06:02:07;18.10;;;9.60;;
39518;SDS011;25200;53.394;10.414;2022-09-11T06:04:34;16.05;;;7.78;;
39518;SDS011;25200;53.394;10.414;2022-09-11T06:07:00;16.50;;;8.63;;
39518;SDS011;25200;53.394;10.414;2022-09-11T06:09:26;13.93;;;7.95;;
39518;SDS011;25200;53.394;10.414;2022-09-11T06:11:51;14.98;;;7.97;;
39518;SDS011;25200;53.394;10.414;2022-09-11T06:14:17;13.52;;;7.07;;
39518;SDS011;25200;53.394;10.414;2022-09-11T06:16:42;14.80;;;7.25;;
39518;SDS011;25200;53.394;10.414;2022-09-11T06:19:08;15.70;;;7.20;;
39518;SDS011;25200;53.394;10.414;2022-09-11T06:21:34;12.93;;;7.05;;
39518;SDS011;25200;53.394;10.414;2022-09-11T06:23:59;12.63;;;6.63;;
39518;SDS011;25200;53.394;10.414;2022-09-11T06:26:25;12.65;;;6.65;;
39518;SDS011;25200;53.394;10.414;2022-09-11T06:28:52;11.45;;;6.18;;
39518;SDS011;25200;53.394;10.414;2022-09-11T06:31:19;15.23;;;6.53;;
39518;SDS011;25200;53.394;10.414;2022-09-11T06:33:46;15.85;;;6.68;;
39518;SDS011;25200;53.394;10.414;2022-09-11T06:36:16;15.02;;;6.80;;
39518;SDS011;25200;53.394;10.414;2022-09-11T06:38:54;14.15;;;6.93;;
39518;SDS011;25200;53.394;10.414;2022-09-11T06:41:21;15.45;;;6.70;;
39518;SDS011;25200;53.394;10.414;2022-09-11T06:43:48;13.18;;;6.82;;
39518;SDS011;25200;53.394;10.414;2022-09-11T06:46:16;11.60;;;5.88;;
39518;SDS011;25200;53.394;10.414;2022-09-11T06:48:44;12.55;;;6.63;;
39518;SDS011;25200;53.394;10.414;2022-09-11T06:51:12;13.20;;;7.28;;
39518;SDS011;25200;53.394;10.414;2022-09-11T06:53:39;14.60;;;6.80;;
39518;SDS011;25200;53.394;10.414;2022-09-11T06:56:06;13.68;;;7.07;;
39518;SDS011;25200;53.394;10.414;2022-09-11T06:58:34;16.20;;;7.13;;
39518;SDS011;25200;53.394;10.414;2022-09-11T07:03:29;14.52;;;7.25;;
39518;SDS011;25200;53.394;10.414;2022-09-11T07:05:55;14.18;;;6.82;;
39518;SDS011;25200;53.394;10.414;2022-09-11T07:08:21;12.07;;;6.53;;
39518;SDS011;25200;53.394;10.414;2022-09-11T07:10:46;11.43;;;6.82;;
39518;SDS011;25200;53.394;10.414;2022-09-11T07:13:12;14.88;;;7.53;;
39518;SDS011;25200;53.394;10.414;2022-09-11T07:15:38;13.07;;;6.93;;
39518;SDS011;25200;53.394;10.414;2022-09-11T07:18:04;14.27;;;7.30;;
39518;SDS011;25200;53.394;10.414;2022-09-11T07:20:30;10.80;;;5.95;;
39518;SDS011;25200;53.394;10.414;2022-09-11T07:22:55;13.45;;;7.05;;
39518;SDS011;25200;53.394;10.414;2022-09-11T07:25:22;11.93;;;6.45;;
39518;SDS011;25200;53.394;10.414;2022-09-11T07:27:48;12.20;;;6.78;;
39518;SDS011;25200;53.394;10.414;2022-09-11T07:30:16;11.85;;;6.88;;
39518;SDS011;25200;53.394;10.414;2022-09-11T07:32:42;12.82;;;6.18;;
39518;SDS011;25200;53.394;10.414;2022-09-11T07:35:08;12.18;;;6.72;;
39518;SDS011;25200;53.394;10.414;2022-09-11T07:37:34;12.60;;;6.22;;
39518;SDS011;25200;53.394;10.414;2022-09-11T07:39:59;10.68;;;5.90;;
39518;SDS011;25200;53.394;10.414;2022-09-11T07:42:25;9.02;;;5.10;;
39518;SDS011;25200;53.394;10.414;2022-09-11T07:44:52;10.82;;;5.18;;
39518;SDS011;25200;53.394;10.414;2022-09-11T07:47:18;10.35;;;5.63;;
39518;SDS011;25200;53.394;10.414;2022-09-11T07:49:44;10.82;;;6.15;;
39518;SDS011;25200;53.394;10.414;2022-09-11T07:52:12;9.77;;;6.00;;
39518;SDS011;25200;53.394;10.414;2022-09-11T07:54:42;11.57;;;6.65;;
39518;SDS011;25200;53.394;10.414;2022-09-11T07:57:08;10.18;;;6.10;;
39518;SDS011;25200;53.394;10.414;2022-09-11T07:59:33;12.20;;;5.50;;
39518;SDS011;25200;53.394;10.414;2022-09-11T08:01:59;8.75;;;5.20;;
39518;SDS011;25200;53.394;10.414;2022-09-11T08:04:24;10.75;;;6.28;;
39518;SDS011;25200;53.394;10.414;2022-09-11T08:06:50;11.07;;;6.25;;
39518;SDS011;25200;53.394;10.414;2022-09-11T08:09:16;10.15;;;5.90;;
39518;SDS011;25200;53.394;10.414;2022-09-11T08:11:43;10.27;;;6.00;;
39518;SDS011;25200;53.394;10.414;2022-09-11T08:14:11;11.55;;;5.75;;
39518;SDS011;25200;53.394;10.414;2022-09-11T08:16:37;9.80;;;5.40;;
39518;SDS011;25200;53.394;10.414;2022-09-11T08:19:04;8.95;;;5.30;;
39518;SDS011;25200;53.394;10.414;2022-09-11T08:21:30;8.90;;;4.90;;
39518;SDS011;25200;53.394;10.414;2022-09-11T08:23:56;10.73;;;5.40;;
39518;SDS011;25200;53.394;10.414;2022-09-11T08:26:24;8.82;;;5.00;;
39518;SDS011;25200;53.394;10.414;2022-09-11T08:28:52;11.20;;;5.80;;
39518;SDS011;25200;53.394;10.414;2022-09-11T08:31:20;9.15;;;5.22;;
39518;SDS011;25200;53.394;10.414;2022-09-11T08:33:47;8.80;;;5.07;;
39518;SDS011;25200;53.394;10.414;2022-09-11T08:36:15;10.27;;;5.05;;
39518;SDS011;25200;53.394;10.414;2022-09-11T08:38:41;9.07;;;5.63;;
39518;SDS011;25200;53.394;10.414;2022-09-11T08:41:54;9.82;;;5.43;;
39518;SDS011;25200;53.394;10.414;2022-09-11T08:44:04;9.48;;;5.10;;
39518;SDS011;25200;53.394;10.414;2022-09-11T08:46:36;9.68;;;5.05;;
39518;SDS011;25200;53.394;10.414;2022-09-11T08:49:09;9.88;;;4.95;;
39518;SDS011;25200;53.394;10.414;2022-09-11T08:51:52;8.27;;;4.28;;
39518;SDS011;25200;53.394;10.414;2022-09-11T08:54:24;6.35;;;3.58;;
39518;SDS011;25200;53.394;10.414;2022-09-11T08:57:44;5.78;;;3.20;;
39518;SDS011;25200;53.394;10.414;2022-09-11T09:17:28;4.28;;;2.35;;
39518;SDS011;25200;53.394;10.414;2022-09-11T09:20:03;4.53;;;2.17;;
39518;SDS011;25200;53.394;10.414;2022-09-11T09:22:41;5.35;;;2.00;;
39518;SDS011;25200;53.394;10.414;2022-09-11T09:25:11;3.42;;;2.00;;
39518;SDS011;25200;53.394;10.414;2022-09-11T09:27:42;5.25;;;2.17;;
39518;SDS011;25200;53.394;10.414;2022-09-11T09:30:21;4.38;;;2.03;;
39518;SDS011;25200;53.394;10.414;2022-09-11T09:33:03;3.45;;;1.90;;
39518;SDS011;25200;53.394;10.414;2022-09-11T09:35:43;4.75;;;2.20;;
39518;SDS011;25200;53.394;10.414;2022-09-11T09:38:11;4.90;;;2.15;;
39518;SDS011;25200;53.394;10.414;2022-09-11T09:46:44;4.17;;;2.00;;
39518;SDS011;25200;53.394;10.414;2022-09-11T09:49:16;4.35;;;1.98;;
39518;SDS011;25200;53.394;10.414;2022-09-11T09:51:49;4.63;;;2.15;;
39518;SDS011;25200;53.394;10.414;2022-09-11T09:54:18;5.05;;;1.95;;
39518;SDS011;25200;53.394;10.414;2022-09-11T09:56:55;4.35;;;2.30;;
39518;SDS011;25200;53.394;10.414;2022-09-11T10:02:28;4.80;;;2.00;;
39518;SDS011;25200;53.394;10.414;2022-09-11T10:07:53;3.05;;;1.50;;
39518;SDS011;25200;53.394;10.414;2022-09-11T10:10:23;3.30;;;1.60;;
39518;SDS011;25200;53.394;10.414;2022-09-11T10:13:13;3.08;;;1.60;;
39518;SDS011;25200;53.394;10.414;2022-09-11T10:15:49;3.13;;;1.50;;
39518;SDS011;25200;53.394;10.414;2022-09-11T10:18:36;3.10;;;1.60;;
39518;SDS011;25200;53.394;10.414;2022-09-11T10:26:45;3.15;;;1.48;;
39518;SDS011;25200;53.394;10.414;2022-09-11T10:29:19;3.63;;;1.58;;
39518;SDS011;25200;53.394;10.414;2022-09-11T10:31:49;3.22;;;1.60;;
39518;SDS011;25200;53.394;10.414;2022-09-11T10:34:17;3.25;;;1.50;;
39518;SDS011;25200;53.394;10.414;2022-09-11T10:36:51;2.83;;;1.60;;
39518;SDS011;25200;53.394;10.414;2022-09-11T10:41:47;2.60;;;1.50;;
39518;SDS011;25200;53.394;10.414;2022-09-11T10:44:14;2.65;;;1.30;;
39518;SDS011;25200;53.394;10.414;2022-09-11T10:46:42;3.58;;;1.60;;
39518;SDS011;25200;53.394;10.414;2022-09-11T10:51:39;1.98;;;1.30;;
39518;SDS011;25200;53.394;10.414;2022-09-11T10:59:53;5.55;;;1.50;;
39518;SDS011;25200;53.394;10.414;2022-09-11T11:05:09;4.05;;;1.15;;
39518;SDS011;25200;53.394;10.414;2022-09-11T11:07:57;3.30;;;1.40;;
39518;SDS011;25200;53.394;10.414;2022-09-11T11:10:49;3.53;;;1.30;;
39518;SDS011;25200;53.394;10.414;2022-09-11T11:16:00;3.25;;;1.50;;
39518;SDS011;25200;53.394;10.414;2022-09-11T11:18:37;3.22;;;1.50;;
39518;SDS011;25200;53.394;10.414;2022-09-11T11:21:27;3.38;;;1.65;;
39518;SDS011;25200;53.394;10.414;2022-09-11T11:24:23;2.67;;;1.50;;
39518;SDS011;25200;53.394;10.414;2022-09-11T11:29:50;5.53;;;1.60;;
39518;SDS011;25200;53.394;10.414;2022-09-11T11:32:38;3.38;;;1.38;;
39518;SDS011;25200;53.394;10.414;2022-09-11T11:35:23;4.07;;;1.80;;
39518;SDS011;25200;53.394;10.414;2022-09-11T11:37:54;4.25;;;1.73;;
39518;SDS011;25200;53.394;10.414;2022-09-11T11:40:32;11.68;;;7.97;;
39518;SDS011;25200;53.394;10.414;2022-09-11T11:43:14;5.72;;;2.60;;
39518;SDS011;25200;53.394;10.414;2022-09-11T11:45:52;4.53;;;2.10;;
39518;SDS011;25200;53.394;10.414;2022-09-11T11:51:01;3.80;;;2.33;;
39518;SDS011;25200;53.394;10.414;2022-09-11T11:53:43;3.58;;;1.77;;
39518;SDS011;25200;53.394;10.414;2022-09-11T11:59:23;3.03;;;1.60;;
39518;SDS011;25200;53.394;10.414;2022-09-11T12:02:34;2.55;;;1.30;;
39518;SDS011;25200;53.394;10.414;2022-09-11T12:07:30;2.43;;;1.50;;
39518;SDS011;25200;53.394;10.414;2022-09-11T12:09:59;4.32;;;1.42;;
39518;SDS011;25200;53.394;10.414;2022-09-11T12:12:30;4.97;;;2.78;;
39518;SDS011;25200;53.394;10.414;2022-09-11T12:15:08;4.15;;;2.00;;
39518;SDS011;25200;53.394;10.414;2022-09-11T12:17:43;4.45;;;2.63;;
39518;SDS011;25200;53.394;10.414;2022-09-11T12:20:35;3.25;;;1.80;;
39518;SDS011;25200;53.394;10.414;2022-09-11T12:23:01;2.97;;;1.33;;
39518;SDS011;25200;53.394;10.414;2022-09-11T12:30:55;8.57;;;3.10;;
39518;SDS011;25200;53.394;10.414;2022-09-11T12:39:05;3.97;;;1.80;;
39518;SDS011;25200;53.394;10.414;2022-09-11T12:41:41;3.37;;;1.43;;
39518;SDS011;25200;53.394;10.414;2022-09-11T12:44:26;2.90;;;1.38;;
39518;SDS011;25200;53.394;10.414;2022-09-11T12:49:22;7.57;;;4.05;;
39518;SDS011;25200;53.394;10.414;2022-09-11T12:51:51;3.58;;;1.80;;
39518;SDS011;25200;53.394;10.414;2022-09-11T12:56:46;2.35;;;1.23;;
39518;SDS011;25200;53.394;10.414;2022-09-11T12:59:34;4.00;;;1.45;;
39518;SDS011;25200;53.394;10.414;2022-09-11T13:02:03;23.77;;;14.07;;
39518;SDS011;25200;53.394;10.414;2022-09-11T13:04:44;12.65;;;5.60;;
39518;SDS011;25200;53.394;10.414;2022-09-11T13:07:19;4.93;;;2.30;;
39518;SDS011;25200;53.394;10.414;2022-09-11T13:10:06;2.55;;;1.42;;
39518;SDS011;25200;53.394;10.414;2022-09-11T13:12:48;5.63;;;2.70;;
39518;SDS011;25200;53.394;10.414;2022-09-11T13:18:41;4.90;;;2.78;;
39518;SDS011;25200;53.394;10.414;2022-09-11T13:21:01;3.58;;;1.38;;
39518;SDS011;25200;53.394;10.414;2022-09-11T13:23:33;3.47;;;1.73;;
39518;SDS011;25200;53.394;10.414;2022-09-11T13:26:00;3.03;;;1.40;;
39518;SDS011;25200;53.394;10.414;2022-09-11T13:28:28;2.20;;;1.25;;
39518;SDS011;25200;53.394;10.414;2022-09-11T13:31:02;2.58;;;1.35;;
39518;SDS011;25200;53.394;10.414;2022-09-11T13:33:29;2.55;;;1.25;;
39518;SDS011;25200;53.394;10.414;2022-09-11T13:35:59;1.83;;;1.20;;
39518;SDS011;25200;53.394;10.414;2022-09-11T13:43:38;1.55;;;1.08;;
39518;SDS011;25200;53.394;10.414;2022-09-11T13:48:38;2.03;;;1.10;;
39518;SDS011;25200;53.394;10.414;2022-09-11T13:51:04;3.45;;;1.30;;
39518;SDS011;25200;53.394;10.414;2022-09-11T13:53:30;1.48;;;0.93;;
39518;SDS011;25200;53.394;10.414;2022-09-11T13:55:59;1.45;;;0.95;;
39518;SDS011;25200;53.394;10.414;2022-09-11T13:58:28;1.67;;;0.85;;
39518;SDS011;25200;53.394;10.414;2022-09-11T14:03:34;1.70;;;1.25;;
39518;SDS011;25200;53.394;10.414;2022-09-11T14:06:08;2.00;;;1.05;;
39518;SDS011;25200;53.394;10.414;2022-09-11T14:08:38;1.52;;;1.00;;
39518;SDS011;25200;53.394;10.414;2022-09-11T14:11:07;3.28;;;1.48;;
39518;SDS011;25200;53.394;10.414;2022-09-11T14:13:39;1.88;;;1.00;;
39518;SDS011;25200;53.394;10.414;2022-09-11T14:24:02;2.72;;;1.02;;
39518;SDS011;25200;53.394;10.414;2022-09-11T14:29:02;3.15;;;1.30;;
39518;SDS011;25200;53.394;10.414;2022-09-11T14:31:49;2.15;;;1.08;;
39518;SDS011;25200;53.394;10.414;2022-09-11T14:34:28;2.20;;;1.13;;
39518;SDS011;25200;53.394;10.414;2022-09-11T14:41:48;3.55;;;1.20;;
39518;SDS011;25200;53.394;10.414;2022-09-11T14:44:14;2.85;;;1.13;;
39518;SDS011;25200;53.394;10.414;2022-09-11T14:46:41;1.63;;;1.10;;
39518;SDS011;25200;53.394;10.414;2022-09-11T14:49:07;2.05;;;1.10;;
39518;SDS011;25200;53.394;10.414;2022-09-11T14:51:36;2.25;;;1.20;;
39518;SDS011;25200;53.394;10.414;2022-09-11T14:54:04;2.22;;;1.10;;
39518;SDS011;25200;53.394;10.414;2022-09-11T14:56:31;1.45;;;1.00;;
39518;SDS011;25200;53.394;10.414;2022-09-11T14:58:57;1.88;;;1.20;;
39518;SDS011;25200;53.394;10.414;2022-09-11T15:01:22;2.60;;;1.30;;
39518;SDS011;25200;53.394;10.414;2022-09-11T15:03:50;2.13;;;1.15;;
39518;SDS011;25200;53.394;10.414;2022-09-11T15:06:17;2.25;;;1.13;;
39518;SDS011;25200;53.394;10.414;2022-09-11T15:08:44;2.47;;;1.30;;
39518;SDS011;25200;53.394;10.414;2022-09-11T15:11:11;2.33;;;1.08;;
39518;SDS011;25200;53.394;10.414;2022-09-11T15:13:37;1.95;;;1.20;;
39518;SDS011;25200;53.394;10.414;2022-09-11T15:16:03;2.13;;;1.15;;
39518;SDS011;25200;53.394;10.414;2022-09-11T15:18:29;2.40;;;1.08;;
39518;SDS011;25200;53.394;10.414;2022-09-11T15:20:58;2.05;;;1.15;;
39518;SDS011;25200;53.394;10.414;2022-09-11T15:23:24;2.50;;;1.30;;
39518;SDS011;25200;53.394;10.414;2022-09-11T15:25:57;3.13;;;1.27;;
39518;SDS011;25200;53.394;10.414;2022-09-11T15:28:29;3.00;;;1.17;;
39518;SDS011;25200;53.394;10.414;2022-09-11T15:30:56;3.17;;;1.40;;
39518;SDS011;25200;53.394;10.414;2022-09-11T15:33:26;3.50;;;1.30;;
39518;SDS011;25200;53.394;10.414;2022-09-11T15:35:52;2.05;;;1.30;;
39518;SDS011;25200;53.394;10.414;2022-09-11T15:38:21;3.22;;;1.30;;
39518;SDS011;25200;53.394;10.414;2022-09-11T15:40:54;1.30;;;0.88;;
39518;SDS011;25200;53.394;10.414;2022-09-11T15:43:24;1.98;;;1.15;;
39518;SDS011;25200;53.394;10.414;2022-09-11T15:45:58;1.77;;;1.15;;
39518;SDS011;25200;53.394;10.414;2022-09-11T15:48:24;1.92;;;1.30;;
39518;SDS011;25200;53.394;10.414;2022-09-11T15:50:59;3.60;;;1.73;;
39518;SDS011;25200;53.394;10.414;2022-09-11T15:53:28;3.15;;;1.48;;
39518;SDS011;25200;53.394;10.414;2022-09-11T15:58:28;4.43;;;1.50;;
39518;SDS011;25200;53.394;10.414;2022-09-11T16:00:56;3.80;;;1.70;;
39518;SDS011;25200;53.394;10.414;2022-09-11T16:03:22;3.97;;;1.60;;
39518;SDS011;25200;53.394;10.414;2022-09-11T16:05:48;2.63;;;1.35;;
39518;SDS011;25200;53.394;10.414;2022-09-11T16:08:13;2.25;;;1.20;;
39518;SDS011;25200;53.394;10.414;2022-09-11T16:10:39;2.42;;;1.33;;
39518;SDS011;25200;53.394;10.414;2022-09-11T16:13:05;2.08;;;1.30;;
39518;SDS011;25200;53.394;10.414;2022-09-11T16:15:32;3.38;;;1.40;;
39518;SDS011;25200;53.394;10.414;2022-09-11T16:17:59;3.08;;;1.58;;
39518;SDS011;25200;53.394;10.414;2022-09-11T16:20:25;2.00;;;1.20;;
39518;SDS011;25200;53.394;10.414;2022-09-11T16:22:51;2.03;;;1.27;;
39518;SDS011;25200;53.394;10.414;2022-09-11T16:25:16;3.50;;;1.60;;
39518;SDS011;25200;53.394;10.414;2022-09-11T16:27:43;3.00;;;1.20;;
39518;SDS011;25200;53.394;10.414;2022-09-11T16:30:08;2.15;;;1.30;;
39518;SDS011;25200;53.394;10.414;2022-09-11T16:32:35;2.67;;;1.35;;
39518;SDS011;25200;53.394;10.414;2022-09-11T16:35:03;4.50;;;2.38;;
39518;SDS011;25200;53.394;10.414;2022-09-11T16:37:33;4.60;;;2.15;;
39518;SDS011;25200;53.394;10.414;2022-09-11T16:39:59;3.60;;;1.77;;
39518;SDS011;25200;53.394;10.414;2022-09-11T16:42:27;3.03;;;1.83;;
39518;SDS011;25200;53.394;10.414;2022-09-11T16:44:53;3.13;;;1.70;;
39518;SDS011;25200;53.394;10.414;2022-09-11T16:47:19;3.60;;;1.23;;
39518;SDS011;25200;53.394;10.414;2022-09-11T16:49:45;3.10;;;1.67;;
39518;SDS011;25200;53.394;10.414;2022-09-11T16:52:10;3.25;;;1.50;;
39518;SDS011;25200;53.394;10.414;2022-09-11T16:54:36;2.53;;;1.40;;
39518;SDS011;25200;53.394;10.414;2022-09-11T16:57:03;10.57;;;2.10;;
39518;SDS011;25200;53.394;10.414;2022-09-11T16:59:30;3.63;;;1.50;;
39518;SDS011;25200;53.394;10.414;2022-09-11T17:01:56;3.40;;;1.60;;
39518;SDS011;25200;53.394;10.414;2022-09-11T17:04:23;3.63;;;1.48;;
39518;SDS011;25200;53.394;10.414;2022-09-11T17:06:49;3.75;;;1.58;;
39518;SDS011;25200;53.394;10.414;2022-09-11T17:09:15;2.72;;;1.52;;